Brushvale, Minnesota
Current Conditions -  °F | °C
As of 11:55 AM on Thursday 23 Oct 2014 (Local Time) from KBWP Reporting Station
Clear Clear  
Wind Chill: 14°   Ceiling: Unl
Heat Index: 14°   Visibility: 10mi
Dew Point:   Wind: 6mph
Humidity: 59%   Direction: 180°S
Pressure: 29.95"   Gusts: NA
Location:  46.3422°N, 96.4653°W
Report Text: KBWP 231655Z AUTO 18005KT 10SM CLR 14/06 A2995 RMK AO1
Loading
Personal Weather Stations






























Interactive Weather Map
Tropical Storm Tracking
New forecast layout! Learn more

10-Day Weather Forecast

Advertisements
Track Severe Weather on mobile